Time;durP1;ratioP1;P1;durP2;ratioP2;P2;SDS_P1;SDS_P2;PMS_P1;PMS_P2;Temp;Humidity;BMP_temperature;BMP_pressure;BME280_temperature;BME280_humidity;BME280_pressure;Samples;Min_cycle;Max_cycle;Signal;HPM_P1;HPM_P2
2021/03/06 00:00:11;;;;;;;2.97;1.90;;;18.20;64.40;;;;;;4990245;28;20030;-30
2021/03/06 00:02:37;;;;;;;4.72;1.83;;;18.30;64.40;;;;;;4989223;28;20101;-30
2021/03/06 00:05:03;;;;;;;2.50;1.85;;;18.30;64.40;;;;;;4986303;28;20160;-30
2021/03/06 00:07:29;;;;;;;2.55;2.15;;;18.30;64.60;;;;;;4986950;28;20045;-30
2021/03/06 00:09:54;;;;;;;3.03;1.80;;;18.20;64.50;;;;;;5017831;28;20067;-30
2021/03/06 00:12:20;;;;;;;2.65;1.92;;;18.30;64.40;;;;;;4990657;28;20023;-31
2021/03/06 00:14:46;;;;;;;2.92;1.95;;;18.20;64.30;;;;;;4989227;28;20166;-30
2021/03/06 00:17:11;;;;;;;2.03;1.67;;;18.30;64.30;;;;;;4989407;28;20506;-31
2021/03/06 00:19:37;;;;;;;2.40;1.70;;;18.30;64.20;;;;;;4986145;28;20113;-30
2021/03/06 00:22:02;;;;;;;1.58;1.48;;;18.20;64.30;;;;;;4985373;28;20030;-30
2021/03/06 00:24:28;;;;;;;2.00;1.83;;;18.20;64.30;;;;;;4989201;28;20030;-30
2021/03/06 00:26:54;;;;;;;1.63;1.33;;;18.20;64.40;;;;;;4989352;28;20033;-30
2021/03/06 00:29:20;;;;;;;2.03;1.80;;;18.20;64.30;;;;;;4987528;28;20101;-30
2021/03/06 00:31:46;;;;;;;2.30;1.83;;;18.20;64.50;;;;;;4977862;28;20117;-30
2021/03/06 00:34:11;;;;;;;3.25;1.70;;;18.10;64.70;;;;;;4982619;28;20034;-30
2021/03/06 00:36:37;;;;;;;3.08;1.73;;;18.10;64.60;;;;;;5020857;28;20030;-31
2021/03/06 00:39:04;;;;;;;3.10;1.40;;;18.20;64.50;;;;;;4994922;28;20034;-38
2021/03/06 00:41:29;;;;;;;2.75;1.88;;;18.20;64.50;;;;;;4988797;28;20540;-30
2021/03/06 00:43:55;;;;;;;1.63;1.25;;;18.20;64.50;;;;;;5017134;28;20038;-31
2021/03/06 00:46:20;;;;;;;2.30;1.45;;;18.20;64.50;;;;;;4985825;28;20030;-32
2021/03/06 00:48:46;;;;;;;2.03;1.83;;;18.10;64.60;;;;;;4985963;28;20081;-30
2021/03/06 00:51:11;;;;;;;1.85;1.67;;;18.10;64.60;;;;;;4989833;28;20030;-31
2021/03/06 00:53:37;;;;;;;1.48;1.38;;;18.10;64.60;;;;;;4988271;28;20113;-30
2021/03/06 00:56:03;;;;;;;1.73;1.58;;;18.10;64.40;;;;;;4985468;28;20037;-30
2021/03/06 00:58:29;;;;;;;1.60;1.50;;;18.10;64.50;;;;;;4978680;28;20149;-31
2021/03/06 01:00:54;;;;;;;2.00;1.80;;;18.10;64.50;;;;;;4975323;28;20126;-30
2021/03/06 01:03:20;;;;;;;2.25;1.52;;;18.10;64.60;;;;;;4989882;28;20019;-30
2021/03/06 01:05:46;;;;;;;1.60;1.50;;;18.10;64.60;;;;;;4990652;28;20404;-31
2021/03/06 01:08:11;;;;;;;1.40;1.30;;;18.10;64.40;;;;;;4985426;28;20496;-31
2021/03/06 01:10:39;;;;;;;1.55;1.45;;;18.10;64.50;;;;;;4985669;28;20053;-30
2021/03/06 01:13:05;;;;;;;1.65;1.55;;;18.10;64.50;;;;;;4985591;28;20042;-30
2021/03/06 01:15:31;;;;;;;4.78;1.75;;;18.10;64.50;;;;;;4988530;28;20027;-30
2021/03/06 01:17:57;;;;;;;1.30;1.20;;;18.10;64.30;;;;;;5003615;28;20083;-31
2021/03/06 01:20:22;;;;;;;1.60;1.50;;;18.10;64.60;;;;;;4987799;28;20081;-30
2021/03/06 01:22:48;;;;;;;3.35;1.50;;;18.00;64.50;;;;;;4985456;28;20109;-31
2021/03/06 01:25:14;;;;;;;1.52;1.42;;;18.00;64.60;;;;;;4985021;28;20105;-31
2021/03/06 01:27:39;;;;;;;2.58;1.20;;;18.00;64.50;;;;;;4987302;28;20027;-30
2021/03/06 01:30:06;;;;;;;1.40;1.30;;;18.00;64.40;;;;;;4988513;28;20455;-30
2021/03/06 01:32:31;;;;;;;2.70;1.58;;;18.10;65.10;;;;;;4987731;28;20030;-30
2021/03/06 01:34:57;;;;;;;1.83;1.30;;;18.00;64.40;;;;;;4985466;28;20049;-30
2021/03/06 01:37:22;;;;;;;2.17;1.33;;;18.10;64.50;;;;;;4985337;28;20034;-31
2021/03/06 01:39:48;;;;;;;1.52;1.42;;;18.10;64.40;;;;;;4985828;28;20504;-30
2021/03/06 01:42:14;;;;;;;1.48;1.38;;;18.00;64.50;;;;;;4989918;28;20065;-30
2021/03/06 01:44:39;;;;;;;1.75;1.30;;;18.00;64.60;;;;;;4993788;28;20484;-30
2021/03/06 01:47:05;;;;;;;1.88;1.48;;;17.90;64.70;;;;;;4988714;28;20030;-30
2021/03/06 01:49:30;;;;;;;1.58;1.23;;;17.90;64.70;;;;;;4993093;28;20033;-30
2021/03/06 01:51:57;;;;;;;3.13;1.50;;;18.00;64.60;;;;;;4989230;28;20412;-32
2021/03/06 01:54:25;;;;;;;1.40;1.30;;;18.00;64.60;;;;;;4992870;28;20037;-30
2021/03/06 01:56:51;;;;;;;1.33;1.23;;;17.90;64.60;;;;;;5022803;28;20034;-30
2021/03/06 01:59:16;;;;;;;1.90;1.27;;;18.00;64.70;;;;;;5021991;28;20050;-30
2021/03/06 02:01:42;;;;;;;1.35;1.25;;;18.00;65.50;;;;;;5000383;28;20069;-30
2021/03/06 02:04:07;;;;;;;1.30;1.20;;;17.90;64.60;;;;;;4998550;28;20133;-30
2021/03/06 02:06:33;;;;;;;1.58;1.10;;;17.90;64.70;;;;;;4991341;28;20026;-30
2021/03/06 02:08:59;;;;;;;1.30;1.20;;;17.90;65.50;;;;;;4990720;28;20084;-31
2021/03/06 02:11:51;;;;;;;1.13;1.13;;;17.90;64.70;;;;;;4990565;28;20029;-31
2021/03/06 02:14:36;;;;;;;1.40;1.30;;;17.90;64.60;;;;;;5015043;28;20081;-30
2021/03/06 02:17:10;;;;;;;1.52;1.13;;;17.90;64.60;;;;;;4988696;28;20027;-32
2021/03/06 02:19:43;;;;;;;1.50;1.40;;;17.90;64.60;;;;;;4988650;28;20042;-30
2021/03/06 02:22:27;;;;;;;1.40;1.30;;;17.90;64.70;;;;;;5019327;28;20421;-30
2021/03/06 02:24:53;;;;;;;1.70;1.60;;;17.90;64.80;;;;;;4988163;28;20138;-30
2021/03/06 02:27:27;;;;;;;1.60;1.50;;;17.90;64.70;;;;;;4992890;28;20113;-30
2021/03/06 02:30:08;;;;;;;2.70;1.52;;;17.80;64.80;;;;;;4991438;28;20026;-32
2021/03/06 02:32:41;;;;;;;1.27;1.02;;;17.80;64.80;;;;;;5022348;28;20023;-30
2021/03/06 02:35:23;;;;;;;1.23;1.15;;;17.80;64.70;;;;;;4996587;28;20043;-31
2021/03/06 02:38:11;;;;;;;1.30;1.20;;;17.80;64.80;;;;;;4985067;28;20022;-30
2021/03/06 02:40:37;;;;;;;1.10;1.08;;;17.80;64.70;;;;;;4986474;28;20070;-30
2021/03/06 02:43:04;;;;;;;1.00;1.00;;;17.80;64.80;;;;;;4996429;28;20026;-32
2021/03/06 02:45:29;;;;;;;1.33;1.23;;;17.80;64.80;;;;;;4993163;28;20524;-30
2021/03/06 02:47:56;;;;;;;1.30;1.20;;;17.80;64.60;;;;;;5015724;28;20606;-33
2021/03/06 02:50:21;;;;;;;1.30;1.05;;;17.80;64.70;;;;;;5020933;28;20559;-31
2021/03/06 02:52:47;;;;;;;1.20;1.10;;;17.80;64.70;;;;;;4987696;28;20109;-30
2021/03/06 02:55:13;;;;;;;1.35;1.08;;;17.80;64.70;;;;;;4988275;28;20053;-32
2021/03/06 02:57:57;;;;;;;0.95;0.95;;;17.80;64.50;;;;;;4997509;28;20046;-30
2021/03/06 03:00:43;;;;;;;0.82;0.82;;;17.80;64.60;;;;;;4991649;28;20034;-30
2021/03/06 03:03:11;;;;;;;1.10;0.98;;;17.80;64.40;;;;;;4991003;28;20076;-35
2021/03/06 03:05:40;;;;;;;1.05;0.98;;;17.80;64.50;;;;;;4990142;28;20026;-30
2021/03/06 03:08:10;;;;;;;0.90;0.90;;;17.80;64.40;;;;;;5019063;28;20151;-30
2021/03/06 03:10:37;;;;;;;1.15;1.10;;;17.80;64.50;;;;;;4987388;28;20053;-30
2021/03/06 03:13:12;;;;;;;0.88;0.88;;;17.80;64.40;;;;;;4988189;28;20477;-30
2021/03/06 03:15:42;;;;;;;1.08;1.08;;;17.80;64.40;;;;;;5021985;28;20033;-30
2021/03/06 03:18:13;;;;;;;1.17;1.10;;;17.70;64.50;;;;;;5006585;28;20030;-30
2021/03/06 03:20:51;;;;;;;1.10;1.10;;;17.80;64.30;;;;;;5020726;28;20022;-30
2021/03/06 03:23:23;;;;;;;1.13;1.05;;;17.80;64.30;;;;;;4994419;28;20069;-31
2021/03/06 03:25:49;;;;;;;0.93;0.93;;;17.80;64.20;;;;;;4998287;28;20022;-30
2021/03/06 03:28:14;;;;;;;1.33;1.05;;;17.80;64.20;;;;;;4987075;28;20032;-30
2021/03/06 03:30:40;;;;;;;1.20;1.10;;;17.80;64.40;;;;;;5003797;28;20055;-30
2021/03/06 03:33:08;;;;;;;1.20;0.90;;;17.80;64.30;;;;;;5021465;28;20034;-31
2021/03/06 03:35:33;;;;;;;1.20;1.10;;;17.70;64.40;;;;;;4990841;28;20151;-30
2021/03/06 03:38:00;;;;;;;1.02;0.93;;;17.70;64.50;;;;;;4975850;28;20477;-30
2021/03/06 03:40:25;;;;;;;1.00;1.00;;;17.70;64.50;;;;;;4995246;28;20113;-31
2021/03/06 03:42:51;;;;;;;1.20;1.20;;;17.70;64.50;;;;;;4987030;28;20548;-30
2021/03/06 03:45:17;;;;;;;1.20;1.05;;;17.70;64.50;;;;;;4976681;28;20026;-30
2021/03/06 03:47:43;;;;;;;1.13;0.80;;;17.70;64.50;;;;;;4989479;28;20502;-30
2021/03/06 03:50:14;;;;;;;0.93;0.93;;;17.70;64.40;;;;;;5016937;28;20034;-30
2021/03/06 03:52:44;;;;;;;0.90;0.90;;;17.70;64.50;;;;;;4986668;28;20498;-30
2021/03/06 03:55:10;;;;;;;1.33;1.13;;;17.60;64.70;;;;;;5001653;28;20034;-31
2021/03/06 03:57:36;;;;;;;0.70;0.70;;;17.60;64.60;;;;;;4975639;28;20140;-30
2021/03/06 04:00:07;;;;;;;1.00;1.00;;;17.70;64.10;;;;;;4989115;28;20160;-30
2021/03/06 04:02:32;;;;;;;1.10;1.10;;;17.70;64.20;;;;;;4991902;28;20026;-30
2021/03/06 04:04:58;;;;;;;0.95;0.95;;;17.60;64.20;;;;;;5017676;28;20033;-30
2021/03/06 04:07:23;;;;;;;1.00;1.00;;;17.60;64.20;;;;;;4986305;28;20416;-30
2021/03/06 04:09:49;;;;;;;0.85;0.85;;;17.70;64.20;;;;;;4988639;28;20018;-32
2021/03/06 04:12:15;;;;;;;2.05;0.90;;;17.70;64.20;;;;;;4974708;28;20101;-31
2021/03/06 04:14:41;;;;;;;0.82;0.82;;;17.70;64.20;;;;;;4988847;28;20381;-30
2021/03/06 04:17:06;;;;;;;1.00;0.90;;;17.60;64.30;;;;;;4980737;28;20033;-30
2021/03/06 04:19:32;;;;;;;1.02;0.98;;;17.60;64.50;;;;;;4980689;28;20046;-30
2021/03/06 04:21:57;;;;;;;0.90;0.90;;;17.60;64.40;;;;;;4986448;28;20094;-30
2021/03/06 04:24:23;;;;;;;1.17;1.17;;;17.60;64.40;;;;;;4990328;28;20582;-30
2021/03/06 04:26:52;;;;;;;1.77;0.90;;;17.60;64.30;;;;;;4987834;28;20137;-31
2021/03/06 04:29:21;;;;;;;0.82;0.80;;;17.60;64.20;;;;;;4974763;28;20034;-30
2021/03/06 04:31:47;;;;;;;0.80;0.80;;;17.60;64.20;;;;;;5014138;28;20026;-30
2021/03/06 04:34:13;;;;;;;1.70;0.90;;;17.60;65.00;;;;;;4986007;28;20045;-30
2021/03/06 04:36:38;;;;;;;0.98;0.90;;;17.60;64.10;;;;;;4988069;28;20521;-30
2021/03/06 04:39:05;;;;;;;0.80;0.80;;;17.60;64.00;;;;;;4988340;28;20030;-31
2021/03/06 04:41:30;;;;;;;1.52;0.80;;;17.60;64.20;;;;;;4986104;28;20137;-30
2021/03/06 04:43:56;;;;;;;1.15;1.10;;;17.50;64.10;;;;;;4985956;28;20120;-30
2021/03/06 04:46:22;;;;;;;1.33;0.93;;;17.60;64.20;;;;;;4985727;28;20058;-31
2021/03/06 04:48:48;;;;;;;0.82;0.77;;;17.60;64.20;;;;;;4988370;28;20030;-30
2021/03/06 04:51:14;;;;;;;0.80;0.80;;;17.60;64.20;;;;;;4974410;28;20034;-30
2021/03/06 04:53:39;;;;;;;0.90;0.90;;;17.60;64.10;;;;;;4978357;28;20122;-30
2021/03/06 04:56:05;;;;;;;0.85;0.80;;;17.60;64.00;;;;;;4984402;28;20113;-31
2021/03/06 04:58:30;;;;;;;0.90;0.90;;;17.60;63.90;;;;;;4989118;28;20439;-30
2021/03/06 05:00:56;;;;;;;0.80;0.80;;;17.60;64.00;;;;;;4985888;28;20031;-30
2021/03/06 05:03:22;;;;;;;0.95;0.95;;;17.50;64.00;;;;;;4990018;28;20026;-31
2021/03/06 05:05:47;;;;;;;0.90;0.90;;;17.50;64.10;;;;;;4988891;28;20369;-30
2021/03/06 05:08:13;;;;;;;0.98;0.90;;;17.50;63.90;;;;;;4985769;28;20048;-30
2021/03/06 05:10:38;;;;;;;0.80;0.80;;;17.50;63.90;;;;;;4985614;28;20030;-30
2021/03/06 05:13:04;;;;;;;0.95;0.95;;;17.60;63.80;;;;;;4984875;28;20035;-30
2021/03/06 05:15:29;;;;;;;0.98;0.90;;;17.50;63.90;;;;;;4997041;28;20022;-31
2021/03/06 05:17:55;;;;;;;0.70;0.70;;;17.50;64.00;;;;;;4992805;28;20037;-30
2021/03/06 05:20:21;;;;;;;0.82;0.82;;;17.50;64.00;;;;;;4983362;28;20035;-30
2021/03/06 05:22:46;;;;;;;0.80;0.80;;;17.50;63.90;;;;;;4985634;28;20036;-30
2021/03/06 05:25:12;;;;;;;0.70;0.70;;;17.50;63.80;;;;;;4989485;28;20053;-30
2021/03/06 05:27:38;;;;;;;0.80;0.80;;;17.50;63.90;;;;;;4991117;28;20101;-32
2021/03/06 05:30:04;;;;;;;0.80;0.80;;;17.50;63.90;;;;;;4991814;28;20113;-31
2021/03/06 05:32:30;;;;;;;0.90;0.90;;;17.50;63.80;;;;;;4991590;28;20026;-30
2021/03/06 05:34:55;;;;;;;0.70;0.70;;;17.50;63.80;;;;;;4989269;28;20042;-30
2021/03/06 05:37:21;;;;;;;0.80;0.80;;;17.50;63.70;;;;;;4989236;28;20050;-30
2021/03/06 05:39:47;;;;;;;0.82;0.82;;;17.50;63.80;;;;;;4989417;28;20046;-30
2021/03/06 05:42:12;;;;;;;0.73;0.73;;;17.40;63.90;;;;;;4993912;28;20046;-30
2021/03/06 05:44:38;;;;;;;0.80;0.80;;;17.40;63.80;;;;;;5009777;28;20483;-29
2021/03/06 05:47:04;;;;;;;1.23;0.75;;;17.40;63.90;;;;;;4988993;28;20050;-30
2021/03/06 05:49:29;;;;;;;0.85;0.85;;;17.40;63.80;;;;;;5020770;28;20030;-30
2021/03/06 05:51:55;;;;;;;0.65;0.65;;;17.40;63.80;;;;;;5020966;28;20089;-29
2021/03/06 05:54:21;;;;;;;0.82;0.82;;;17.40;63.90;;;;;;5025227;28;20039;-29
2021/03/06 05:56:47;;;;;;;0.85;0.85;;;17.40;64.00;;;;;;4990897;28;20027;-30
2021/03/06 05:59:13;;;;;;;0.90;0.90;;;17.40;64.00;;;;;;4997712;28;20030;-29
2021/03/06 06:01:40;;;;;;;0.93;0.93;;;17.40;63.90;;;;;;4988830;28;20026;-30
2021/03/06 06:04:05;;;;;;;1.02;1.02;;;17.40;63.90;;;;;;5019971;28;20026;-30
2021/03/06 06:06:32;;;;;;;0.60;0.60;;;17.40;64.00;;;;;;4992402;28;20033;-30
2021/03/06 06:08:58;;;;;;;0.80;0.80;;;17.40;64.00;;;;;;4994094;28;20032;-29
2021/03/06 06:11:28;;;;;;;0.68;0.68;;;17.40;64.00;;;;;;4990264;28;20125;-29
2021/03/06 06:13:54;;;;;;;0.70;0.70;;;17.40;63.90;;;;;;4988521;28;20042;-30
2021/03/06 06:16:20;;;;;;;0.60;0.60;;;17.40;63.80;;;;;;4988258;28;20034;-29
2021/03/06 06:18:46;;;;;;;0.80;0.80;;;17.40;63.70;;;;;;5020950;28;20030;-29
2021/03/06 06:21:49;;;;;;;1.00;1.00;;;17.40;63.60;;;;;;4991877;28;20093;-29
2021/03/06 06:24:16;;;;;;;0.77;0.77;;;17.40;63.80;;;;;;4992432;28;20018;-29
2021/03/06 06:27:05;;;;;;;1.38;0.63;;;17.40;63.90;;;;;;4990816;28;20022;-29
2021/03/06 06:29:45;;;;;;;0.70;0.70;;;17.40;63.90;;;;;;4984567;28;20030;-29
2021/03/06 06:32:21;;;;;;;0.85;0.85;;;17.30;64.00;;;;;;4988602;28;20172;-30
2021/03/06 06:34:56;;;;;;;0.82;0.82;;;17.30;64.00;;;;;;4988773;28;20038;-30
2021/03/06 06:37:22;;;;;;;1.10;0.85;;;17.30;63.90;;;;;;4988281;28;20568;-30
2021/03/06 06:39:48;;;;;;;0.55;0.55;;;17.30;63.90;;;;;;4992601;28;20074;-31
2021/03/06 06:42:13;;;;;;;0.63;0.63;;;17.40;63.60;;;;;;4983172;28;20026;-29
2021/03/06 06:44:39;;;;;;;0.70;0.70;;;17.40;63.90;;;;;;4993936;28;20382;-29
2021/03/06 06:47:12;;;;;;;0.70;0.70;;;17.40;63.70;;;;;;4992300;28;20033;-28
2021/03/06 06:49:44;;;;;;;0.88;0.88;;;17.40;63.60;;;;;;4987648;28;20026;-28
2021/03/06 06:52:10;;;;;;;0.98;0.98;;;17.30;64.00;;;;;;4991880;28;20451;-28
2021/03/06 06:54:35;;;;;;;0.80;0.80;;;17.30;64.00;;;;;;4989412;28;20042;-30
2021/03/06 06:57:10;;;;;;;0.90;0.90;;;17.20;64.20;;;;;;4990485;28;20062;-30
2021/03/06 06:59:50;;;;;;;0.85;0.85;;;17.30;64.20;;;;;;4992811;28;20074;-30
2021/03/06 07:02:15;;;;;;;1.10;1.00;;;17.20;64.20;;;;;;4990705;28;20026;-29
2021/03/06 07:04:55;;;;;;;1.00;0.90;;;17.20;64.40;;;;;;4996635;28;20144;-29
2021/03/06 07:07:23;;;;;;;0.90;0.90;;;17.20;64.60;;;;;;4988710;28;20030;-30
2021/03/06 07:10:01;;;;;;;0.82;0.82;;;17.20;64.70;;;;;;4992322;28;20037;-29
2021/03/06 07:12:28;;;;;;;0.98;0.98;;;17.20;64.60;;;;;;4977943;28;20026;-30
2021/03/06 07:14:54;;;;;;;0.85;0.85;;;17.30;64.70;;;;;;4981561;28;20112;-30
2021/03/06 07:17:19;;;;;;;1.58;1.40;;;17.20;64.60;;;;;;4991549;28;20495;-29
2021/03/06 07:19:45;;;;;;;1.55;1.10;;;17.30;64.90;;;;;;4987460;28;20038;-29
2021/03/06 07:22:12;;;;;;;2.25;1.15;;;17.20;65.10;;;;;;4987441;28;20033;-29
2021/03/06 07:24:38;;;;;;;1.33;1.10;;;17.20;65.30;;;;;;4989279;28;20419;-30
2021/03/06 07:27:04;;;;;;;1.42;1.33;;;17.20;65.50;;;;;;4990512;28;20034;-29
2021/03/06 07:29:29;;;;;;;1.13;1.10;;;17.20;65.50;;;;;;4980937;28;20023;-30
2021/03/06 07:31:56;;;;;;;1.33;1.02;;;17.10;65.50;;;;;;4990720;28;20527;-31
2021/03/06 07:34:26;;;;;;;1.35;1.23;;;17.20;65.50;;;;;;4992667;28;20049;-30
2021/03/06 07:37:06;;;;;;;1.23;0.93;;;17.20;65.50;;;;;;4994302;28;20033;-29
2021/03/06 07:39:49;;;;;;;1.60;1.20;;;17.20;65.30;;;;;;4977354;28;21132;-30
2021/03/06 07:42:19;;;;;;;1.05;0.95;;;17.20;65.20;;;;;;4992115;28;20109;-30
2021/03/06 07:44:45;;;;;;;4.63;1.40;;;17.20;65.10;;;;;;4992960;28;20385;-30
2021/03/06 07:47:12;;;;;;;1.20;1.10;;;17.20;65.00;;;;;;4980210;28;20034;-30
2021/03/06 07:49:37;;;;;;;1.67;1.58;;;17.20;65.10;;;;;;4981722;28;20444;-30
2021/03/06 07:52:03;;;;;;;1.50;1.40;;;17.20;65.10;;;;;;5001606;28;20054;-31
2021/03/06 07:54:29;;;;;;;3.53;1.35;;;17.20;65.20;;;;;;5004594;28;20034;-31
2021/03/06 07:56:58;;;;;;;2.08;1.60;;;17.20;65.30;;;;;;5004751;28;20101;-30
2021/03/06 07:59:45;;;;;;;1.50;1.33;;;17.10;65.20;;;;;;5023430;28;20026;-30
2021/03/06 08:02:30;;;;;;;1.48;1.38;;;17.10;65.20;;;;;;4990959;28;20416;-30
2021/03/06 08:04:55;;;;;;;1.67;1.48;;;17.10;65.30;;;;;;4986363;28;20030;-30
2021/03/06 08:07:35;;;;;;;1.88;1.50;;;17.10;65.40;;;;;;4986572;28;20080;-30
2021/03/06 08:10:01;;;;;;;2.33;1.50;;;17.10;65.30;;;;;;5004697;28;20029;-31
2021/03/06 08:12:36;;;;;;;1.65;1.40;;;17.10;65.30;;;;;;4979172;28;20033;-31
2021/03/06 08:15:31;;;;;;;2.65;1.40;;;17.10;66.00;;;;;;4988433;28;20034;-31
2021/03/06 08:17:57;;;;;;;;;;;17.10;65.20;;;;;;4989268;28;20030;-29
2021/03/06 08:20:30;;;;;;;2.25;1.30;;;17.10;65.20;;;;;;4987916;28;19921;-29
2021/03/06 08:23:19;;;;;;;2.00;1.33;;;17.10;65.10;;;;;;5017355;28;20034;-30
2021/03/06 08:25:47;;;;;;;1.95;1.63;;;17.10;65.00;;;;;;4984014;28;20034;-31
2021/03/06 08:28:26;;;;;;;1.73;1.38;;;17.10;65.00;;;;;;4989374;28;20737;-29
2021/03/06 08:30:52;;;;;;;1.40;1.30;;;17.10;64.90;;;;;;4986328;28;20061;-30
2021/03/06 08:33:17;;;;;;;4.57;1.50;;;17.10;64.90;;;;;;4974615;28;20497;-30
2021/03/06 08:35:43;;;;;;;3.13;1.10;;;17.10;64.90;;;;;;4988418;28;20484;-30
2021/03/06 08:38:30;;;;;;;1.40;1.20;;;17.10;64.80;;;;;;4988912;28;20026;-30
2021/03/06 08:40:57;;;;;;;2.50;1.48;;;17.10;64.80;;;;;;4986105;28;20054;-30
2021/03/06 08:43:22;;;;;;;1.25;1.15;;;17.20;64.50;;;;;;4986283;28;20019;-31
2021/03/06 08:45:48;;;;;;;1.45;1.35;;;17.20;64.10;;;;;;4986367;28;20034;-30
2021/03/06 08:48:14;;;;;;;1.27;1.17;;;17.20;64.00;;;;;;4984368;28;20056;-29
2021/03/06 08:50:39;;;;;;;2.75;1.30;;;17.20;63.90;;;;;;5020053;28;20534;-30
2021/03/06 08:53:12;;;;;;;1.58;1.48;;;17.30;63.80;;;;;;5019510;28;20065;-30
2021/03/06 08:55:40;;;;;;;1.33;1.23;;;17.20;63.70;;;;;;4985372;28;20076;-29
2021/03/06 08:58:07;;;;;;;1.77;1.30;;;17.20;64.80;;;;;;4985683;28;20592;-31
2021/03/06 09:00:36;;;;;;;2.78;1.38;;;17.20;63.60;;;;;;4988204;28;20455;-29
2021/03/06 09:03:13;;;;;;;1.13;1.02;;;17.20;63.60;;;;;;4988046;28;20101;-29
2021/03/06 09:05:39;;;;;;;1.45;1.35;;;17.20;63.60;;;;;;4989610;28;20041;-29
2021/03/06 09:08:05;;;;;;;1.45;1.20;;;17.30;63.60;;;;;;4987256;28;20019;-29
2021/03/06 09:10:40;;;;;;;1.20;1.10;;;17.30;63.50;;;;;;4987186;28;20062;-30
2021/03/06 09:13:06;;;;;;;1.40;1.30;;;17.20;63.40;;;;;;4988805;28;20058;-29
2021/03/06 09:15:40;;;;;;;1.58;1.48;;;17.30;63.00;;;;;;4986643;28;20524;-30
2021/03/06 09:18:08;;;;;;;1.70;1.40;;;17.40;63.30;;;;;;4988430;28;20030;-31
2021/03/06 09:21:09;;;;;;;2.00;1.40;;;17.40;62.90;;;;;;4988118;28;20365;-30
2021/03/06 09:23:35;;;;;;;1.65;1.30;;;17.50;62.70;;;;;;4983797;28;20136;-29
2021/03/06 09:26:16;;;;;;;1.25;1.10;;;17.60;63.00;;;;;;5016194;28;20500;-30
2021/03/06 09:28:42;;;;;;;1.75;1.50;;;17.60;63.10;;;;;;4981078;28;20042;-31
2021/03/06 09:31:15;;;;;;;1.50;1.40;;;17.70;63.40;;;;;;4985103;28;20038;-29
2021/03/06 09:33:40;;;;;;;3.15;1.50;;;17.80;63.50;;;;;;4989575;28;20043;-37
2021/03/06 09:36:11;;;;;;;2.65;1.35;;;17.80;63.30;;;;;;4988481;28;20026;-36
2021/03/06 09:38:43;;;;;;;2.13;1.92;;;17.90;63.40;;;;;;4978202;28;20031;-30
2021/03/06 09:41:09;;;;;;;1.95;1.85;;;17.90;63.40;;;;;;4988490;28;20519;-33
2021/03/06 09:43:36;;;;;;;2.97;2.20;;;17.90;63.20;;;;;;4989325;28;20183;-29
2021/03/06 09:46:03;;;;;;;3.33;1.77;;;17.90;62.90;;;;;;4985059;28;20019;-29
2021/03/06 09:48:28;;;;;;;2.35;2.00;;;17.90;62.60;;;;;;4988614;28;20030;-29
2021/03/06 09:50:56;;;;;;;2.70;2.45;;;18.00;62.30;;;;;;4987827;28;20036;-29
2021/03/06 09:53:24;;;;;;;2.75;2.28;;;18.10;61.90;;;;;;4986347;28;20062;-29
2021/03/06 09:56:10;;;;;;;4.72;2.03;;;18.10;63.00;;;;;;4997257;28;20035;-34
2021/03/06 09:58:37;;;;;;;2.13;2.03;;;18.10;63.00;;;;;;4979665;28;20027;-29
2021/03/06 10:01:19;;;;;;;2.95;2.25;;;18.10;62.90;;;;;;4974175;28;20031;-29
2021/03/06 10:03:49;;;;;;;2.00;1.90;;;18.10;62.40;;;;;;4987436;28;20483;-29
2021/03/06 10:06:17;;;;;;;2.72;2.28;;;18.10;61.80;;;;;;4992411;28;20041;-30
2021/03/06 10:08:56;;;;;;;3.33;2.17;;;18.20;61.60;;;;;;4991123;28;20018;-30
2021/03/06 10:11:42;;;;;;;4.25;2.30;;;18.20;61.10;;;;;;5019908;28;20069;-30
2021/03/06 10:14:08;;;;;;;3.22;2.17;;;18.20;61.10;;;;;;4984154;28;20061;-30
2021/03/06 10:16:56;;;;;;;3.22;2.00;;;18.10;61.20;;;;;;5000920;28;20117;-30
2021/03/06 10:19:23;;;;;;;4.30;2.20;;;18.20;61.60;;;;;;4981062;28;20022;-29
2021/03/06 10:22:05;;;;;;;3.28;2.05;;;18.10;61.00;;;;;;4988998;28;20468;-30
2021/03/06 10:24:31;;;;;;;3.78;1.77;;;18.20;61.10;;;;;;4991294;28;20027;-29
2021/03/06 10:27:01;;;;;;;3.20;1.80;;;18.20;61.50;;;;;;4991038;28;20085;-30
2021/03/06 10:29:27;;;;;;;1.80;1.70;;;18.20;61.10;;;;;;4989809;28;20041;-33
2021/03/06 10:32:00;;;;;;;4.90;2.00;;;18.10;61.00;;;;;;4987290;28;20029;-29
2021/03/06 10:34:30;;;;;;;4.03;1.92;;;18.20;60.90;;;;;;4987287;28;20077;-29
2021/03/06 10:37:05;;;;;;;4.40;1.92;;;18.20;61.00;;;;;;4988345;28;20019;-29
2021/03/06 10:39:31;;;;;;;5.47;1.98;;;18.20;61.10;;;;;;4989618;28;20092;-30
2021/03/06 10:41:57;;;;;;;8.23;2.05;;;18.20;61.00;;;;;;4975178;28;20035;-29
2021/03/06 10:44:23;;;;;;;4.15;1.67;;;18.20;61.00;;;;;;4989252;28;20034;-29
2021/03/06 10:46:58;;;;;;;2.67;1.60;;;18.20;60.90;;;;;;5019372;28;20077;-29
2021/03/06 10:49:34;;;;;;;2.03;1.42;;;18.30;61.00;;;;;;4987777;28;20124;-30
2021/03/06 10:51:59;;;;;;;5.82;1.92;;;18.30;60.90;;;;;;4987737;28;20029;-30
2021/03/06 10:54:25;;;;;;;3.28;1.83;;;18.40;60.80;;;;;;4991593;28;20042;-29
2021/03/06 10:57:04;;;;;;;1.67;1.58;;;18.40;60.70;;;;;;4987318;28;20026;-29
2021/03/06 10:59:36;;;;;;;5.88;2.33;;;18.50;61.30;;;;;;5019266;28;20439;-29
2021/03/06 11:02:02;;;;;;;3.13;1.33;;;18.60;60.30;;;;;;4985978;28;20022;-29
2021/03/06 11:04:29;;;;;;;1.70;1.27;;;18.60;61.10;;;;;;4983577;28;20037;-29
2021/03/06 11:06:59;;;;;;;3.58;1.30;;;18.70;60.40;;;;;;4975124;28;20135;-29
2021/03/06 11:09:32;;;;;;;1.73;1.10;;;18.70;60.20;;;;;;4990745;28;20051;-29
2021/03/06 11:12:15;;;;;;;1.88;1.38;;;18.80;60.10;;;;;;4989937;28;20113;-32
2021/03/06 11:14:40;;;;;;;2.80;1.30;;;18.80;59.90;;;;;;4992116;28;20468;-29
2021/03/06 11:17:06;;;;;;;7.63;1.35;;;18.80;59.80;;;;;;5017670;28;20029;-29
2021/03/06 11:19:31;;;;;;;4.03;1.30;;;18.90;59.70;;;;;;4985887;28;20097;-29
2021/03/06 11:21:57;;;;;;;1.40;1.30;;;18.80;59.70;;;;;;4988885;28;20033;-29
2021/03/06 11:24:22;;;;;;;2.28;1.30;;;18.90;59.50;;;;;;4975721;28;20070;-30
2021/03/06 11:26:48;;;;;;;1.23;1.13;;;18.90;59.60;;;;;;4640648;28;10000217;-30
2021/03/06 11:29:13;;;;;;;1.40;1.30;;;18.80;59.50;;;;;;4985942;28;20053;-30
2021/03/06 11:31:40;;;;;;;1.10;1.00;;;18.90;59.50;;;;;;4985518;28;20034;-30
2021/03/06 11:34:06;;;;;;;4.88;1.40;;;18.80;59.50;;;;;;4985368;28;20036;-30
2021/03/06 11:36:31;;;;;;;3.00;1.23;;;18.90;59.50;;;;;;4979277;28;20033;-30
2021/03/06 11:38:57;;;;;;;2.03;1.15;;;18.90;59.40;;;;;;4975322;28;20030;-30
2021/03/06 11:41:22;;;;;;;1.63;1.15;;;18.90;59.30;;;;;;4986772;28;20054;-31
2021/03/06 11:43:48;;;;;;;1.40;1.20;;;18.90;59.30;;;;;;4985885;28;20125;-31
2021/03/06 11:46:13;;;;;;;2.28;1.30;;;18.90;59.40;;;;;;4985514;28;20029;-32
2021/03/06 11:48:39;;;;;;;1.00;1.00;;;18.90;59.30;;;;;;4987581;28;20483;-31
2021/03/06 11:51:05;;;;;;;1.60;1.40;;;18.90;59.30;;;;;;4988725;28;20026;-31
2021/03/06 11:53:30;;;;;;;1.63;1.10;;;18.90;59.10;;;;;;4972665;28;20117;-31
2021/03/06 11:55:56;;;;;;;1.85;1.30;;;18.90;59.00;;;;;;4983432;28;20030;-31
2021/03/06 11:58:21;;;;;;;1.90;1.10;;;18.90;58.90;;;;;;4985272;28;20018;-30
2021/03/06 12:00:47;;;;;;;1.60;1.30;;;18.90;59.00;;;;;;4987615;28;20380;-32
2021/03/06 12:03:13;;;;;;;2.25;1.35;;;18.90;59.20;;;;;;4975233;28;20525;-30
2021/03/06 12:05:38;;;;;;;1.60;1.10;;;18.90;59.30;;;;;;4981765;28;20069;-30
2021/03/06 12:08:04;;;;;;;2.15;1.20;;;18.90;59.30;;;;;;4983528;28;20037;-33
2021/03/06 12:10:30;;;;;;;1.65;1.20;;;18.90;59.30;;;;;;4981939;28;20508;-31
2021/03/06 12:12:56;;;;;;;1.65;1.15;;;19.00;59.20;;;;;;4991568;28;20027;-32
2021/03/06 12:15:22;;;;;;;4.07;1.20;;;19.00;59.10;;;;;;4978571;28;20100;-30
2021/03/06 12:17:49;;;;;;;6.57;1.33;;;19.10;59.10;;;;;;4975629;28;20138;-29
2021/03/06 12:20:15;;;;;;;1.58;1.20;;;19.10;59.10;;;;;;4974825;28;20878;-30
2021/03/06 12:22:41;;;;;;;1.05;0.90;;;19.10;59.30;;;;;;4976769;28;20041;-30
2021/03/06 12:25:07;;;;;;;2.08;1.00;;;19.10;59.40;;;;;;4976594;28;20034;-30
2021/03/06 12:27:33;;;;;;;1.38;1.10;;;19.10;59.40;;;;;;4975210;28;20026;-30
2021/03/06 12:29:59;;;;;;;1.75;1.40;;;19.10;59.40;;;;;;4976868;28;20054;-29
2021/03/06 12:32:24;;;;;;;2.40;0.82;;;19.10;59.50;;;;;;4975770;28;20143;-29
2021/03/06 12:34:50;;;;;;;1.20;0.80;;;19.20;59.50;;;;;;4976599;28;20423;-29
2021/03/06 12:37:16;;;;;;;3.50;1.13;;;19.10;59.50;;;;;;5007949;28;20121;-30
2021/03/06 12:39:42;;;;;;;1.65;0.90;;;19.20;59.70;;;;;;4980268;28;20057;-34
2021/03/06 12:42:07;;;;;;;0.77;0.77;;;19.10;59.60;;;;;;4975062;28;20112;-32
2021/03/06 12:44:33;;;;;;;1.00;0.82;;;19.20;59.40;;;;;;4977890;28;21383;-32
2021/03/06 12:46:59;;;;;;;0.90;0.90;;;19.20;59.50;;;;;;4976610;28;20054;-30
2021/03/06 12:49:24;;;;;;;1.10;1.10;;;19.10;59.50;;;;;;4977292;28;20038;-36
2021/03/06 12:51:50;;;;;;;2.17;0.98;;;19.10;59.60;;;;;;4975059;28;20038;-30
2021/03/06 12:54:16;;;;;;;1.35;1.23;;;19.00;59.60;;;;;;4976585;28;20822;-35